Time;durP1;ratioP1;P1;durP2;ratioP2;P2;SDS_P1;SDS_P2;PMS_P1;PMS_P2;Temp;Humidity;BMP_temperature;BMP_pressure;BME280_temperature;BME280_humidity;BME280_pressure;Samples;Min_cycle;Max_cycle;Signal;HPM_P1;HPM_P2
2022/03/17 00:00:12;;;;;;;32.88;23.83;;;;;;;7.15;60.07;100255.97;5025635;28;20096;-67
2022/03/17 00:02:39;;;;;;;29.05;23.17;;;;;;;7.07;60.35;100250.03;5025581;28;20053;-67
2022/03/17 00:05:12;;;;;;;30.00;22.88;;;;;;;6.09;60.22;100101.56;5025180;28;20041;-67
2022/03/17 00:07:41;;;;;;;33.78;26.30;;;;;;;7.05;60.32;100239.53;5025462;28;20266;-66
2022/03/17 00:10:14;;;;;;;31.02;22.63;;;;;;;7.04;60.32;100232.53;5025867;28;20080;-67
2022/03/17 00:12:48;;;;;;;32.20;24.63;;;;;;;6.96;60.63;100234.50;5025810;28;20084;-67
2022/03/17 00:15:16;;;;;;;32.65;25.13;;;;;;;6.95;60.45;100221.38;5025476;28;20058;-67
2022/03/17 00:17:46;;;;;;;30.85;23.00;;;;;;;6.92;60.59;100221.47;5025814;28;20045;-67
2022/03/17 00:20:16;;;;;;;33.90;25.55;;;;;;;6.93;60.57;100223.19;5025407;28;20179;-66
2022/03/17 00:22:46;;;;;;;31.27;25.48;;;;;;;6.88;60.76;100219.81;5025750;28;20104;-67
2022/03/17 00:25:17;;;;;;;32.33;24.65;;;;;;;6.86;60.66;100219.84;5025486;28;20072;-67
2022/03/17 00:27:48;;;;;;;31.45;24.75;;;;;;;5.72;60.99;100057.75;5025721;28;20065;-66
2022/03/17 00:30:17;;;;;;;31.88;23.90;;;;;;;6.76;61.36;100223.59;5025399;28;20305;-66
2022/03/17 00:32:47;;;;;;;29.98;23.25;;;;;;;6.55;61.18;100192.53;5025651;28;20104;-67
2022/03/17 00:35:36;;;;;;;30.85;25.33;;;;;;;6.09;61.27;100130.50;5025657;28;20109;-67
2022/03/17 00:38:11;;;;;;;29.48;23.63;;;;;;;6.73;61.12;100229.81;5025636;28;20049;-66
2022/03/17 00:40:46;;;;;;;32.00;24.83;;;;;;;6.75;61.07;100228.00;5025307;28;20248;-67
2022/03/17 00:43:22;;;;;;;30.90;24.83;;;;;;;6.71;61.13;100222.84;5025288;28;20062;-67
2022/03/17 00:45:54;;;;;;;30.27;25.67;;;;;;;6.49;61.13;100208.50;5025565;28;20088;-67
2022/03/17 00:48:26;;;;;;;33.45;26.48;;;;;;;6.68;61.13;100233.47;5025497;28;20060;-66
2022/03/17 00:50:58;;;;;;;31.00;24.02;;;;;;;6.57;61.81;100251.31;5025242;28;20050;-67
2022/03/17 00:53:30;;;;;;;31.27;23.25;;;;;;;6.54;61.58;100251.38;5025443;28;20046;-66
2022/03/17 00:56:02;;;;;;;29.25;24.23;;;;;;;6.47;61.74;100250.66;5027661;28;20198;-66
2022/03/17 00:58:37;;;;;;;28.80;22.02;;;;;;;6.48;61.66;100254.16;5029154;28;20289;-67
2022/03/17 01:01:09;;;;;;;32.45;25.10;;;;;;;6.51;61.57;100260.22;5029052;28;20045;-66
2022/03/17 01:03:42;;;;;;;30.90;23.45;;;;;;;6.42;61.78;100250.78;5028795;28;20042;-67
2022/03/17 01:06:14;;;;;;;34.75;27.40;;;;;;;5.34;61.55;100066.53;5028713;28;20049;-67
2022/03/17 01:08:46;;;;;;;29.05;23.17;;;;;;;6.37;62.19;100246.53;5028929;28;20046;-67
2022/03/17 01:11:19;;;;;;;31.98;23.42;;;;;;;6.39;61.80;100252.63;5028916;28;20257;-67
2022/03/17 01:13:52;;;;;;;31.80;25.23;;;;;;;6.35;62.08;100251.81;5028510;28;20084;-67
2022/03/17 01:16:24;;;;;;;30.35;24.88;;;;;;;6.36;61.79;100250.91;5028537;28;20041;-67
2022/03/17 01:18:56;;;;;;;35.58;25.33;;;;;;;6.35;62.07;100248.31;5028521;28;20042;-67
2022/03/17 01:21:29;;;;;;;32.75;25.48;;;;;;;6.33;61.93;100252.75;5028684;28;20053;-66
2022/03/17 01:24:01;;;;;;;32.05;26.05;;;;;;;6.22;62.22;100247.75;5028399;28;20218;-68
2022/03/17 01:26:33;;;;;;;32.05;27.17;;;;;;;6.16;62.55;100247.88;5027584;28;20088;-66
2022/03/17 01:29:07;;;;;;;31.77;23.35;;;;;;;5.67;62.34;100154.28;5028565;28;20057;-66
2022/03/17 01:31:40;;;;;;;31.48;25.88;;;;;;;6.27;61.99;100242.38;5028290;28;20088;-66
2022/03/17 01:34:12;;;;;;;34.67;26.38;;;;;;;6.29;61.99;100245.84;5028447;28;20050;-67
2022/03/17 01:36:44;;;;;;;32.17;24.08;;;;;;;6.28;61.99;100238.84;5028082;28;20302;-66
2022/03/17 01:39:17;;;;;;;30.73;24.98;;;;;;;6.24;62.30;100234.56;5028119;28;20042;-67
2022/03/17 01:41:49;;;;;;;33.10;25.08;;;;;;;6.18;62.33;100240.81;5028007;28;20046;-67
2022/03/17 01:44:22;;;;;;;33.13;24.35;;;;;;;6.22;62.37;100241.63;5028290;28;20092;-67
2022/03/17 01:49:45;;;;;;;34.33;26.05;;;;;;;6.17;62.17;100235.59;5027949;28;20246;-67
2022/03/17 01:52:17;;;;;;;39.55;30.85;;;;;;;6.07;62.42;100230.53;5027698;28;20093;-67
2022/03/17 01:54:51;;;;;;;33.05;24.65;;;;;;;4.90;62.58;100048.25;5027614;28;20109;-65
2022/03/17 01:57:23;;;;;;;29.33;23.48;;;;;;;5.57;62.68;100184.31;5028008;28;20237;-66
2022/03/17 01:59:57;;;;;;;33.05;24.83;;;;;;;5.88;62.99;100239.75;5027897;28;20050;-65
2022/03/17 02:02:29;;;;;;;33.30;25.25;;;;;;;5.84;63.03;100234.59;5027951;28;20096;-65
2022/03/17 02:05:03;;;;;;;29.77;24.45;;;;;;;5.76;63.33;100229.50;5027863;28;20067;-66
2022/03/17 02:07:35;;;;;;;34.47;24.00;;;;;;;5.71;63.49;100229.59;5027204;28;20096;-66
2022/03/17 02:10:08;;;;;;;29.17;24.23;;;;;;;5.69;63.25;100233.16;5027781;28;20104;-66
2022/03/17 02:15:30;;;;;;;30.00;25.55;;;;;;;5.12;63.24;100178.25;5023934;28;20128;-66
2022/03/17 02:17:58;;;;;;;31.92;23.88;;;;;;;5.66;63.30;100241.97;5027042;28;20055;-66
2022/03/17 02:20:29;;;;;;;32.03;23.85;;;;;;;5.74;63.04;100239.19;5027528;28;20049;-66
2022/03/17 02:25:52;;;;;;;33.30;25.92;;;;;;;5.69;63.05;100235.78;5026384;28;20306;-66
2022/03/17 02:28:26;;;;;;;28.92;23.25;;;;;;;4.88;63.53;100129.66;5027416;28;20104;-66
2022/03/17 02:31:00;;;;;;;33.28;26.27;;;;;;;5.61;63.30;100245.59;5027080;28;20045;-66
2022/03/17 02:33:32;;;;;;;28.20;23.02;;;;;;;5.60;63.44;100231.59;5027124;28;20225;-66
2022/03/17 02:36:04;;;;;;;30.40;23.48;;;;;;;5.66;63.15;100246.38;5027316;28;20088;-66
2022/03/17 02:38:38;;;;;;;32.75;23.98;;;;;;;5.59;63.60;100248.25;5026976;28;20046;-66
2022/03/17 02:41:21;;;;;;;31.60;23.88;;;;;;;5.56;63.67;100264.09;5026924;28;20087;-66
2022/03/17 02:43:54;;;;;;;29.55;22.88;;;;;;;5.48;63.68;100260.75;5027176;28;20050;-66
2022/03/17 02:46:28;;;;;;;29.77;23.30;;;;;;;5.52;63.48;100270.31;5027153;28;20175;-66
2022/03/17 02:49:00;;;;;;;30.90;23.13;;;;;;;5.57;63.40;100279.00;5027131;28;20230;-66
2022/03/17 02:51:32;;;;;;;30.92;23.70;;;;;;;5.32;63.46;100240.94;5027027;28;20373;-66
2022/03/17 02:54:06;;;;;;;33.58;23.13;;;;;;;5.45;63.45;100273.97;5026724;28;20045;-66
2022/03/17 02:56:38;;;;;;;30.15;23.27;;;;;;;5.43;63.34;100287.16;5026694;28;20253;-67
2022/03/17 02:59:10;;;;;;;32.83;24.23;;;;;;;5.10;63.80;100254.50;5026893;28;20104;-67
2022/03/17 03:01:43;;;;;;;30.13;24.52;;;;;;;5.30;63.79;100298.78;5026760;28;20046;-66
2022/03/17 03:04:17;;;;;;;28.48;23.10;;;;;;;5.28;63.89;100291.84;5026788;28;20041;-67
2022/03/17 03:06:49;;;;;;;29.88;22.88;;;;;;;5.33;63.82;100289.97;5026484;28;20092;-67
2022/03/17 03:09:22;;;;;;;28.58;22.10;;;;;;;5.32;63.74;100297.00;5026678;28;20293;-67
2022/03/17 03:11:54;;;;;;;31.70;24.98;;;;;;;5.25;63.98;100292.75;5026688;28;20046;-67
2022/03/17 03:14:27;;;;;;;31.90;23.77;;;;;;;5.21;64.00;100298.09;5026607;28;20042;-67
2022/03/17 03:16:59;;;;;;;28.60;23.23;;;;;;;5.18;64.33;100300.78;5025547;28;20229;-66
2022/03/17 03:19:31;;;;;;;30.70;24.20;;;;;;;5.21;63.81;100295.47;5025735;28;20092;-67
2022/03/17 03:22:04;;;;;;;31.73;25.65;;;;;;;5.22;64.02;100291.94;5026144;28;20046;-67
2022/03/17 03:24:38;;;;;;;33.60;24.90;;;;;;;5.17;64.33;100293.78;5026146;28;20100;-67
2022/03/17 03:27:10;;;;;;;34.70;25.00;;;;;;;5.15;64.21;100293.81;5025606;28;20042;-67
2022/03/17 03:29:42;;;;;;;29.80;23.73;;;;;;;5.13;64.25;100285.09;5026344;28;20100;-67
2022/03/17 03:32:14;;;;;;;31.25;22.90;;;;;;;5.13;64.00;100291.22;5026354;28;20335;-67
2022/03/17 03:34:46;;;;;;;30.42;23.65;;;;;;;5.09;64.71;100293.94;5026011;28;20104;-67
2022/03/17 03:37:23;;;;;;;35.38;25.25;;;;;;;5.05;64.82;100305.38;5026143;28;20096;-67
2022/03/17 03:39:58;;;;;;;30.40;22.58;;;;;;;5.00;65.06;100308.09;5026096;28;20084;-67
2022/03/17 03:42:30;;;;;;;36.10;25.35;;;;;;;4.98;64.94;100296.75;5026039;28;20095;-67
2022/03/17 03:45:02;;;;;;;29.17;24.58;;;;;;;4.97;65.01;100291.53;5026164;28;20042;-67
2022/03/17 03:47:34;;;;;;;29.75;23.30;;;;;;;4.99;64.88;100298.47;5026095;28;20109;-67
2022/03/17 03:50:08;;;;;;;32.83;26.00;;;;;;;4.99;64.94;100301.09;5026017;28;20103;-66
2022/03/17 03:52:40;;;;;;;36.78;26.80;;;;;;;4.96;64.95;100303.78;5025940;28;20092;-67
2022/03/17 03:55:13;;;;;;;40.78;31.92;;;;;;;5.03;65.01;100297.53;5025825;28;20069;-67
2022/03/17 03:57:48;;;;;;;44.75;33.00;;;;;;;5.15;64.61;100300.84;5025718;28;20187;-67
2022/03/17 04:03:04;;;;;;;47.35;32.75;;;;;;;5.19;64.40;100305.16;5024069;28;20057;-67
2022/03/17 04:05:34;;;;;;;41.60;32.90;;;;;;;5.22;64.26;100305.94;5025635;28;20187;-66
2022/03/17 04:08:04;;;;;;;44.72;32.72;;;;;;;5.28;64.59;100310.22;5025872;28;20164;-67
2022/03/17 04:10:35;;;;;;;36.40;28.17;;;;;;;5.28;64.23;100312.84;5025886;28;20041;-67
2022/03/17 04:13:04;;;;;;;32.70;25.98;;;;;;;5.22;64.19;100305.94;5025857;28;20050;-66
2022/03/17 04:15:34;;;;;;;33.28;24.90;;;;;;;5.14;64.40;100313.09;5025789;28;20282;-67
2022/03/17 04:18:05;;;;;;;33.10;25.27;;;;;;;5.04;64.78;100308.91;5025523;28;20052;-67
2022/03/17 04:20:35;;;;;;;31.83;25.52;;;;;;;5.05;64.77;100310.63;5025419;28;20042;-67
2022/03/17 04:23:05;;;;;;;35.00;26.48;;;;;;;5.05;64.62;100310.63;5025630;28;20061;-67
2022/03/17 04:25:37;;;;;;;32.30;24.02;;;;;;;4.99;64.93;100306.38;5025762;28;20041;-67
2022/03/17 04:28:05;;;;;;;29.17;22.00;;;;;;;4.95;64.83;100303.81;5025437;28;20201;-67
2022/03/17 04:30:36;;;;;;;34.67;24.67;;;;;;;4.91;65.15;100310.00;5026634;28;20053;-67
2022/03/17 04:33:06;;;;;;;31.75;23.80;;;;;;;4.94;64.75;100307.34;5029348;28;20053;-67
2022/03/17 04:35:36;;;;;;;32.80;25.10;;;;;;;4.93;64.74;100308.22;5029595;28;20045;-67
2022/03/17 04:38:06;;;;;;;30.98;23.02;;;;;;;4.94;64.56;100315.22;5029284;28;20046;-67
2022/03/17 04:40:38;;;;;;;28.20;22.27;;;;;;;4.97;64.50;100315.16;5029210;28;20041;-67
2022/03/17 04:43:07;;;;;;;31.25;23.92;;;;;;;4.91;64.77;100313.50;5029106;28;20249;-67
2022/03/17 04:45:37;;;;;;;30.50;24.08;;;;;;;4.91;64.63;100320.53;5029403;28;20117;-67
2022/03/17 04:48:07;;;;;;;33.10;26.35;;;;;;;4.95;64.63;100330.09;5029083;28;20101;-67
2022/03/17 04:50:38;;;;;;;34.40;27.38;;;;;;;4.97;64.44;100323.03;5029283;28;20049;-67
2022/03/17 04:56:01;;;;;;;37.75;26.90;;;;;;;4.91;65.25;100333.66;5028745;28;20054;-67
2022/03/17 04:58:36;;;;;;;33.45;26.75;;;;;;;4.83;65.66;100325.88;5029140;28;20073;-67
2022/03/17 05:01:09;;;;;;;40.67;28.95;;;;;;;4.82;65.21;100339.91;5028878;28;20084;-67
2022/03/17 05:03:42;;;;;;;39.45;27.85;;;;;;;4.85;65.04;100342.47;5028982;28;20046;-67
2022/03/17 05:06:15;;;;;;;36.70;25.33;;;;;;;4.89;65.30;100341.56;5029000;28;20045;-67
2022/03/17 05:08:48;;;;;;;35.35;24.88;;;;;;;4.89;65.03;100340.66;5028977;28;20164;-67
2022/03/17 05:11:21;;;;;;;36.05;26.77;;;;;;;4.91;65.00;100344.16;5028938;28;20091;-67
2022/03/17 05:13:53;;;;;;;45.58;27.20;;;;;;;4.84;65.33;100347.75;5028627;28;20050;-67
2022/03/17 05:16:25;;;;;;;41.85;29.25;;;;;;;4.87;65.46;100350.31;5028838;28;20092;-67
2022/03/17 05:18:57;;;;;;;37.65;29.58;;;;;;;4.91;65.14;100352.91;5028525;28;20037;-67
2022/03/17 05:21:30;;;;;;;36.22;27.20;;;;;;;4.93;64.96;100342.38;5028625;28;20345;-67
2022/03/17 05:24:02;;;;;;;39.33;27.92;;;;;;;4.95;65.00;100349.34;5028600;28;20042;-67
2022/03/17 05:26:36;;;;;;;42.78;29.27;;;;;;;4.98;65.16;100345.78;5028359;28;20294;-67
2022/03/17 05:29:08;;;;;;;37.00;27.90;;;;;;;4.97;64.96;100349.31;5028563;28;20049;-67
2022/03/17 05:31:40;;;;;;;43.47;33.13;;;;;;;5.00;64.97;100357.16;5028593;28;20065;-67
2022/03/17 05:34:12;;;;;;;41.95;30.35;;;;;;;5.03;65.16;100357.97;5028213;28;20038;-67
2022/03/17 05:36:45;;;;;;;42.40;28.15;;;;;;;5.04;64.96;100356.19;5028443;28;20041;-66
2022/03/17 05:39:17;;;;;;;39.25;28.45;;;;;;;4.87;65.09;100316.19;5028371;28;20241;-66
2022/03/17 05:41:50;;;;;;;40.90;27.77;;;;;;;5.08;65.03;100353.50;5026226;28;20179;-66
2022/03/17 05:44:22;;;;;;;42.10;29.17;;;;;;;5.15;64.81;100356.03;5028214;28;20050;-66
2022/03/17 05:46:55;;;;;;;43.55;32.58;;;;;;;5.18;64.61;100353.34;5027962;28;20100;-66
2022/03/17 05:49:28;;;;;;;38.30;29.23;;;;;;;5.19;64.84;100360.34;5027920;28;20100;-65
2022/03/17 05:52:00;;;;;;;42.28;29.55;;;;;;;5.22;64.58;100358.50;5027116;28;20050;-66
2022/03/17 05:54:32;;;;;;;44.30;28.70;;;;;;;5.26;64.45;100359.34;5027540;28;20053;-67
2022/03/17 05:57:06;;;;;;;41.42;31.58;;;;;;;5.23;65.11;100362.88;5027986;28;20084;-66
2022/03/17 05:59:39;;;;;;;44.08;31.77;;;;;;;5.26;64.97;100368.09;5027722;28;20096;-66
2022/03/17 06:02:11;;;;;;;41.85;31.13;;;;;;;5.24;64.75;100361.97;5027948;28;20340;-66
2022/03/17 06:04:44;;;;;;;41.55;30.92;;;;;;;5.23;65.15;100367.28;5026823;28;20068;-66
2022/03/17 06:07:16;;;;;;;42.10;30.25;;;;;;;5.24;64.92;100367.25;5027858;28;20092;-66
2022/03/17 06:09:48;;;;;;;40.08;30.15;;;;;;;5.24;64.89;100372.50;5026730;28;20088;-66
2022/03/17 06:12:21;;;;;;;40.20;28.13;;;;;;;5.27;65.49;100376.84;5027403;28;20096;-66
2022/03/17 06:14:53;;;;;;;41.08;30.05;;;;;;;5.28;64.92;100378.56;5027517;28;20046;-66
2022/03/17 06:17:37;;;;;;;36.10;26.25;;;;;;;5.28;65.20;100378.56;5027549;28;20058;-67
2022/03/17 06:20:12;;;;;;;44.20;28.77;;;;;;;4.38;64.20;100218.09;5027262;28;20042;-67
2022/03/17 06:22:46;;;;;;;31.95;24.85;;;;;;;5.25;64.40;100376.00;5027353;28;20053;-66
2022/03/17 06:25:19;;;;;;;30.50;23.97;;;;;;;5.22;64.38;100384.78;5027580;28;20041;-66
2022/03/17 06:27:53;;;;;;;32.38;25.38;;;;;;;5.28;64.50;100384.69;5027469;28;20373;-66
2022/03/17 06:30:27;;;;;;;36.40;26.17;;;;;;;5.30;64.35;100416.22;5027346;28;20080;-66
2022/03/17 06:33:01;;;;;;;37.97;27.92;;;;;;;5.32;64.11;100385.50;5026992;28;20089;-66
2022/03/17 06:35:34;;;;;;;37.95;28.20;;;;;;;5.34;64.22;100389.84;5026937;28;20046;-66
2022/03/17 06:38:08;;;;;;;41.53;31.88;;;;;;;5.44;64.15;100394.03;5026946;28;20042;-66
2022/03/17 06:40:41;;;;;;;50.08;37.83;;;;;;;5.53;64.22;100393.00;5027282;28;20045;-66
2022/03/17 06:43:16;;;;;;;43.05;33.20;;;;;;;5.60;64.30;100391.13;5026723;28;20049;-66
2022/03/17 06:45:49;;;;;;;51.58;36.58;;;;;;;5.70;63.92;100393.56;5027109;28;20038;-66
2022/03/17 06:48:19;;;;;;;50.22;37.00;;;;;;;5.77;63.87;100378.53;5026924;28;20049;-66
2022/03/17 06:50:49;;;;;;;50.30;39.30;;;;;;;5.87;63.84;100381.84;5025992;28;20087;-67
2022/03/17 06:53:19;;;;;;;42.65;33.15;;;;;;;5.91;64.20;100389.66;5026538;28;20052;-66
2022/03/17 06:55:50;;;;;;;56.78;38.22;;;;;;;5.96;63.86;100393.06;5026802;28;20076;-66
2022/03/17 06:58:21;;;;;;;44.67;32.47;;;;;;;5.97;63.92;100394.78;5026807;28;20080;-66
2022/03/17 07:00:50;;;;;;;46.15;32.88;;;;;;;5.98;64.09;100396.53;5026723;28;20290;-66
2022/03/17 07:03:20;;;;;;;46.42;34.55;;;;;;;5.99;63.90;100395.63;5026584;28;20046;-66
2022/03/17 07:05:50;;;;;;;46.05;34.45;;;;;;;6.02;64.21;100395.56;5026459;28;20069;-66
2022/03/17 07:08:21;;;;;;;47.25;34.50;;;;;;;6.05;63.81;100392.88;5026192;28;20041;-65
2022/03/17 07:10:51;;;;;;;49.67;34.35;;;;;;;6.07;63.77;100401.59;5026156;28;20080;-65
2022/03/17 07:13:22;;;;;;;47.47;36.20;;;;;;;6.13;63.94;100397.13;5026285;28;20197;-66
2022/03/17 07:15:51;;;;;;;50.47;35.65;;;;;;;5.92;64.22;100362.44;5026279;28;20148;-67
2022/03/17 07:18:22;;;;;;;52.25;38.22;;;;;;;6.12;63.88;100385.72;5026158;28;20101;-66
2022/03/17 07:20:53;;;;;;;45.85;34.13;;;;;;;6.17;63.80;100393.53;5025569;28;20056;-66
2022/03/17 07:23:22;;;;;;;51.58;38.58;;;;;;;6.21;63.91;100393.44;5025951;28;20206;-67
2022/03/17 07:25:52;;;;;;;49.00;36.53;;;;;;;6.26;63.43;100402.09;5026372;28;20042;-67
2022/03/17 07:28:25;;;;;;;52.80;37.83;;;;;;;6.33;63.87;100402.84;5026190;28;20084;-67
2022/03/17 07:30:53;;;;;;;51.42;37.22;;;;;;;6.30;63.41;100403.75;5026204;28;20065;-67
2022/03/17 07:33:23;;;;;;;57.08;41.88;;;;;;;6.41;63.38;100404.41;5026205;28;20048;-66
2022/03/17 07:35:53;;;;;;;46.85;34.58;;;;;;;6.47;63.20;100406.03;5025745;28;20041;-66
2022/03/17 07:38:24;;;;;;;44.25;33.10;;;;;;;6.53;63.13;100405.91;5025895;28;20041;-66
2022/03/17 07:40:54;;;;;;;47.55;35.28;;;;;;;6.60;63.00;100410.13;5025800;28;20041;-66
2022/03/17 07:43:25;;;;;;;44.97;32.58;;;;;;;6.64;63.09;100405.66;5025627;28;20056;-67
2022/03/17 07:45:54;;;;;;;51.10;34.58;;;;;;;6.67;62.93;100411.72;5025831;28;20037;-67
2022/03/17 07:48:25;;;;;;;50.10;34.25;;;;;;;6.69;63.03;100409.94;5025946;28;20140;-67
2022/03/17 07:50:55;;;;;;;44.83;34.13;;;;;;;6.72;62.95;100414.25;5025691;28;20038;-67
2022/03/17 07:53:25;;;;;;;51.20;34.88;;;;;;;6.79;62.78;100420.25;5025669;28;20050;-67
2022/03/17 07:55:56;;;;;;;48.17;34.40;;;;;;;6.89;62.53;100416.53;5025346;28;20113;-66
2022/03/17 07:58:27;;;;;;;46.35;32.75;;;;;;;6.96;62.34;100426.91;5025484;28;20264;-66
2022/03/17 08:00:57;;;;;;;43.95;33.80;;;;;;;6.98;62.13;100421.59;5025867;28;20105;-67
2022/03/17 08:03:26;;;;;;;45.35;32.83;;;;;;;7.00;62.27;100430.34;5025588;28;20049;-67
2022/03/17 08:05:57;;;;;;;43.65;34.47;;;;;;;7.06;62.31;100443.38;5025087;28;20046;-66
2022/03/17 08:08:26;;;;;;;48.60;34.65;;;;;;;7.17;62.01;100428.16;5025371;28;20303;-66
2022/03/17 08:10:58;;;;;;;46.85;34.88;;;;;;;7.27;61.82;100431.44;5025515;28;20060;-67
2022/03/17 08:13:29;;;;;;;45.72;34.90;;;;;;;7.26;61.47;100422.66;5025540;28;20046;-66
2022/03/17 08:15:57;;;;;;;47.70;33.65;;;;;;;7.35;61.42;100426.88;5025565;28;20049;-67
2022/03/17 08:18:29;;;;;;;43.30;33.00;;;;;;;7.40;61.16;100432.03;5025456;28;20038;-67
2022/03/17 08:20:58;;;;;;;46.53;33.22;;;;;;;7.44;61.20;100428.41;5026084;28;20076;-66
2022/03/17 08:23:28;;;;;;;42.95;32.42;;;;;;;7.53;61.02;100436.09;5025492;28;20050;-66
2022/03/17 08:25:58;;;;;;;46.67;35.00;;;;;;;7.64;60.88;100436.69;5025367;28;20034;-67
2022/03/17 08:28:30;;;;;;;48.35;36.08;;;;;;;7.68;60.82;100427.78;5025178;28;20049;-67
2022/03/17 08:30:59;;;;;;;45.63;35.33;;;;;;;7.71;60.52;100438.25;5024516;28;20038;-66
2022/03/17 08:33:29;;;;;;;40.83;30.75;;;;;;;7.74;60.41;100435.53;5025428;28;20046;-67
2022/03/17 08:35:59;;;;;;;48.72;33.15;;;;;;;7.76;59.87;100424.94;5025140;28;20101;-67
2022/03/17 08:38:29;;;;;;;46.53;34.67;;;;;;;7.82;60.03;100433.56;5025228;28;20044;-67
2022/03/17 08:41:00;;;;;;;45.55;34.38;;;;;;;7.81;59.96;100439.75;5025116;28;20349;-67
2022/03/17 08:43:31;;;;;;;41.85;31.10;;;;;;;6.99;59.79;100286.28;5025312;28;20104;-67
2022/03/17 08:51:39;;;;;;;40.35;30.85;;;;;;;7.85;59.83;100433.47;5025078;28;20061;-67
2022/03/17 08:54:12;;;;;;;44.13;34.25;;;;;;;7.89;59.26;100435.13;5024727;28;20042;-68
2022/03/17 08:56:44;;;;;;;45.63;36.70;;;;;;;7.90;59.27;100439.50;5024132;28;20042;-67
2022/03/17 08:59:18;;;;;;;40.10;29.77;;;;;;;7.92;59.23;100437.69;5024770;28;20046;-68
2022/03/17 09:01:50;;;;;;;38.85;30.42;;;;;;;7.91;58.65;100438.59;5025094;28;20049;-67
2022/03/17 09:04:22;;;;;;;43.55;28.80;;;;;;;7.92;58.98;100440.31;5023954;28;20046;-67
2022/03/17 09:06:59;;;;;;;43.70;31.10;;;;;;;7.85;58.91;100451.97;5025073;28;20038;-67
2022/03/17 09:09:32;;;;;;;39.22;30.67;;;;;;;7.89;59.06;100453.59;5024805;28;20222;-67
2022/03/17 09:12:07;;;;;;;40.55;32.42;;;;;;;8.00;58.91;100440.13;5024310;28;20046;-67
2022/03/17 09:14:44;;;;;;;37.55;28.85;;;;;;;7.56;58.55;100375.34;5024132;28;20100;-67
2022/03/17 09:17:16;;;;;;;35.42;27.40;;;;;;;8.05;57.93;100446.13;5025915;28;20045;-67
2022/03/17 09:19:48;;;;;;;34.25;27.27;;;;;;;8.01;57.19;100449.75;5028248;28;20084;-67
2022/03/17 09:22:20;;;;;;;30.67;26.02;;;;;;;8.08;56.81;100453.09;5028283;28;20091;-66
2022/03/17 09:24:52;;;;;;;33.08;25.35;;;;;;;8.17;56.34;100460.78;5028287;28;20241;-67
2022/03/17 09:27:24;;;;;;;33.42;28.83;;;;;;;8.24;56.29;100451.78;5028053;28;20041;-67
2022/03/17 09:29:58;;;;;;;32.72;26.23;;;;;;;8.36;56.00;100462.00;5028555;28;20064;-67
2022/03/17 09:32:30;;;;;;;29.13;23.83;;;;;;;8.21;56.18;100421.03;5027751;28;20293;-67
2022/03/17 09:35:02;;;;;;;32.00;25.10;;;;;;;8.39;56.05;100455.75;5028304;28;20049;-67
2022/03/17 09:37:35;;;;;;;33.50;26.55;;;;;;;8.37;55.38;100465.50;5028453;28;20100;-67
2022/03/17 09:40:08;;;;;;;37.47;26.35;;;;;;;8.35;56.10;100458.47;5043996;28;20293;-66
2022/03/17 09:42:41;;;;;;;33.08;27.15;;;;;;;8.36;56.08;100467.28;5028226;28;20241;-67
2022/03/17 09:45:15;;;;;;;32.45;25.75;;;;;;;8.33;56.02;100467.34;5027806;28;20249;-67
2022/03/17 09:47:48;;;;;;;33.53;26.10;;;;;;;8.35;55.73;100457.63;5027975;28;20100;-67
2022/03/17 09:50:21;;;;;;;33.28;27.70;;;;;;;8.43;55.82;100457.41;5027785;28;20249;-67
2022/03/17 09:52:53;;;;;;;32.05;25.13;;;;;;;8.55;55.89;100468.47;5027776;28;20089;-67
2022/03/17 09:55:25;;;;;;;33.33;26.23;;;;;;;8.62;55.61;100461.22;5027483;28;20108;-66
2022/03/17 09:57:58;;;;;;;32.85;25.10;;;;;;;8.73;55.57;100467.06;5027994;28;20104;-66
2022/03/17 10:03:19;;;;;;;35.92;28.75;;;;;;;9.05;54.63;100466.06;5027799;28;20091;-68
2022/03/17 10:05:51;;;;;;;38.42;29.50;;;;;;;9.22;54.49;100471.72;5027476;28;20088;-67
2022/03/17 10:08:24;;;;;;;38.15;28.85;;;;;;;9.02;52.79;100482.03;5027421;28;20052;-67
2022/03/17 10:10:57;;;;;;;30.60;26.42;;;;;;;8.97;53.87;100465.44;5027476;28;20088;-67
2022/03/17 10:13:28;;;;;;;41.20;28.42;;;;;;;9.05;54.39;100474.00;5027417;28;20105;-67
2022/03/17 10:16:09;;;;;;;33.58;26.58;;;;;;;8.90;53.80;100434.81;5027639;28;20049;-67
2022/03/17 10:18:43;;;;;;;36.65;27.13;;;;;;;9.29;54.64;100478.56;5026724;28;20109;-67
2022/03/17 10:21:17;;;;;;;34.43;27.87;;;;;;;9.02;54.05;100415.94;5027554;28;20041;-68
2022/03/17 10:23:51;;;;;;;35.10;26.47;;;;;;;9.53;53.91;100476.91;5027272;28;20053;-67
2022/03/17 10:26:40;;;;;;;32.08;26.20;;;;;;;9.59;52.96;100466.13;5027296;28;20092;-67
2022/03/17 10:29:14;;;;;;;32.45;27.33;;;;;;;9.63;53.36;100465.09;5026652;28;20041;-66
2022/03/17 10:31:53;;;;;;;28.58;22.23;;;;;;;9.68;52.20;100467.59;5027141;28;20042;-67
2022/03/17 10:34:28;;;;;;;30.63;25.52;;;;;;;9.68;53.45;100459.66;5026770;28;20144;-66
2022/03/17 10:37:07;;;;;;;31.27;25.13;;;;;;;9.75;52.09;100461.19;5027177;28;20042;-66
2022/03/17 10:39:43;;;;;;;27.55;24.08;;;;;;;9.81;51.75;100470.69;5026764;28;20084;-66
2022/03/17 10:42:17;;;;;;;30.45;25.92;;;;;;;9.79;50.73;100462.81;5027101;28;20085;-66
2022/03/17 10:44:51;;;;;;;28.90;23.73;;;;;;;9.86;51.34;100469.63;5026668;28;20237;-66
2022/03/17 10:47:26;;;;;;;29.60;23.50;;;;;;;9.95;50.76;100465.78;5027133;28;20084;-67
2022/03/17 10:50:08;;;;;;;31.35;24.63;;;;;;;8.77;50.99;100251.97;5027006;28;20042;-66
2022/03/17 10:52:48;;;;;;;31.23;22.77;;;;;;;10.08;49.57;100459.13;5026719;28;20072;-67
2022/03/17 10:55:23;;;;;;;31.00;23.05;;;;;;;9.60;48.62;100371.72;5026447;28;20058;-67
2022/03/17 10:57:58;;;;;;;27.88;23.55;;;;;;;10.25;49.03;100455.88;5026670;28;20042;-66
2022/03/17 11:00:35;;;;;;;26.35;20.52;;;;;;;10.30;48.73;100447.75;5026537;28;20049;-67
2022/03/17 11:03:09;;;;;;;29.08;24.17;;;;;;;10.50;48.43;100443.47;5026304;28;20340;-67
2022/03/17 11:05:41;;;;;;;29.08;22.08;;;;;;;10.85;47.76;100451.88;5026438;28;20245;-67
2022/03/17 11:08:14;;;;;;;27.67;22.73;;;;;;;10.85;47.52;100441.28;5026594;28;20057;-67
2022/03/17 11:10:47;;;;;;;29.77;23.13;;;;;;;10.86;45.46;100453.59;5025356;28;20053;-67
2022/03/17 11:13:19;;;;;;;25.17;21.08;;;;;;;10.91;46.52;100446.34;5026427;28;20045;-67
2022/03/17 11:15:59;;;;;;;23.25;20.42;;;;;;;11.11;42.99;100426.97;5026241;28;20237;-67
2022/03/17 11:18:36;;;;;;;25.73;19.52;;;;;;;11.08;41.13;100443.88;5025995;28;20282;-67
2022/03/17 11:21:13;;;;;;;25.00;19.73;;;;;;;11.10;40.74;100450.00;5026065;28;20187;-67
2022/03/17 11:23:55;;;;;;;25.50;18.50;;;;;;;10.43;41.67;100304.16;5026266;28;20088;-67
2022/03/17 11:26:34;;;;;;;22.77;18.20;;;;;;;10.26;40.93;100280.09;5026002;28;20093;-66
2022/03/17 11:29:08;;;;;;;24.08;18.58;;;;;;;11.39;41.22;100445.28;5025954;28;20046;-66
2022/03/17 11:31:51;;;;;;;21.20;16.40;;;;;;;11.44;38.13;100440.66;5025939;28;20045;-66
2022/03/17 11:34:48;;;;;;;22.83;17.02;;;;;;;11.54;37.98;100431.38;5025952;28;20431;-66
2022/03/17 11:37:26;;;;;;;18.83;15.90;;;;;;;11.75;36.71;100421.63;5025753;28;20046;-66
2022/03/17 11:40:04;;;;;;;16.67;12.77;;;;;;;11.13;36.66;100334.91;5024770;28;20092;-66
2022/03/17 11:42:39;;;;;;;16.02;11.43;;;;;;;11.71;34.99;100439.50;5025725;28;20104;-66
2022/03/17 11:45:28;;;;;;;19.98;15.45;;;;;;;11.67;34.94;100432.59;5025570;28;20050;-67
2022/03/17 11:48:02;;;;;;;22.50;15.52;;;;;;;11.68;34.15;100439.63;5025535;28;20045;-66
2022/03/17 11:50:42;;;;;;;20.92;15.02;;;;;;;11.58;35.18;100443.59;5025776;28;20092;-67
2022/03/17 11:53:24;;;;;;;21.38;15.60;;;;;;;11.72;35.42;100427.94;5025695;28;20037;-66
2022/03/17 11:55:57;;;;;;;19.65;15.32;;;;;;;11.85;37.35;100417.66;5025307;28;20088;-67
2022/03/17 11:58:39;;;;;;;19.83;15.10;;;;;;;11.91;35.66;100419.19;5025290;28;20229;-66
2022/03/17 12:01:13;;;;;;;18.90;15.00;;;;;;;12.10;37.04;100425.44;5025771;28;20049;-67
2022/03/17 12:03:47;;;;;;;20.97;15.80;;;;;;;12.26;37.40;100423.00;5025143;28;20046;-67